Terminal Aerodrome Forecast
Issued by NWS Quad Cities IA IL

Home | Current Version | Previous Version | Text Only | Print | Product List | Glossary On
Versions: 1 2 3 4 5 6 7 8 9 10 11 12 13 14 15 16 17 18 19
558
FTUS43 KDVN 271209 AAA
TAFDBQ
TAF AMD
KDBQ 271209Z 2712/2812 04008KT 4SM BR OVC015
      TEMPO 2712/2714 1SM BR BKN002
     FM271400 11005KT 6SM BR OVC012
     FM271600 20005KT P6SM FEW035 SCT250
     FM280500 02004KT 4SM BR SCT250=

USA.gov is the U.S. government's official web portal to all federal, state and local government web resources and services.